sensor_id;sensor_type;location;lat;lon;timestamp;pressure;altitude;pressure_sealevel;temperature;humidity
57847;BME280;43675;50.030;21.952;2023-06-24T00:02:18;98676.65;;;18.89;91.46
57847;BME280;43675;50.030;21.952;2023-06-24T00:04:45;98674.62;;;18.87;91.51
57847;BME280;43675;50.030;21.952;2023-06-24T00:07:11;98677.06;;;18.85;91.42
57847;BME280;43675;50.030;21.952;2023-06-24T00:09:38;98678.96;;;18.82;91.48
57847;BME280;43675;50.030;21.952;2023-06-24T00:12:05;98681.17;;;18.79;91.53
57847;BME280;43675;50.030;21.952;2023-06-24T00:14:32;98686.08;;;18.77;91.55
57847;BME280;43675;50.030;21.952;2023-06-24T00:16:59;98689.55;;;18.75;91.55
57847;BME280;43675;50.030;21.952;2023-06-24T00:19:26;98696.77;;;18.73;91.67
57847;BME280;43675;50.030;21.952;2023-06-24T00:21:53;98698.66;;;18.70;91.71
57847;BME280;43675;50.030;21.952;2023-06-24T00:24:22;98699.43;;;18.69;91.80
57847;BME280;43675;50.030;21.952;2023-06-24T00:26:49;98697.29;;;18.68;91.92
57847;BME280;43675;50.030;21.952;2023-06-24T00:29:15;98696.92;;;18.67;91.94
57847;BME280;43675;50.030;21.952;2023-06-24T00:31:42;98696.92;;;18.66;92.07
57847;BME280;43675;50.030;21.952;2023-06-24T00:34:08;98697.36;;;18.66;92.09
57847;BME280;43675;50.030;21.952;2023-06-24T00:36:35;98702.41;;;18.66;92.20
57847;BME280;43675;50.030;21.952;2023-06-24T00:39:02;98702.73;;;18.65;92.21
57847;BME280;43675;50.030;21.952;2023-06-24T00:41:33;98698.54;;;18.65;92.23
57847;BME280;43675;50.030;21.952;2023-06-24T00:44:00;98697.34;;;18.68;92.19
57847;BME280;43675;50.030;21.952;2023-06-24T00:46:28;98701.27;;;18.66;92.15
57847;BME280;43675;50.030;21.952;2023-06-24T00:48:55;98699.02;;;18.65;92.25
57847;BME280;43675;50.030;21.952;2023-06-24T00:51:22;98697.55;;;18.63;92.30
57847;BME280;43675;50.030;21.952;2023-06-24T00:53:49;98698.23;;;18.61;92.36
57847;BME280;43675;50.030;21.952;2023-06-24T00:56:16;98694.77;;;18.60;92.34
57847;BME280;43675;50.030;21.952;2023-06-24T00:58:43;98694.38;;;18.58;92.45
57847;BME280;43675;50.030;21.952;2023-06-24T01:01:09;98693.28;;;18.57;92.46
57847;BME280;43675;50.030;21.952;2023-06-24T01:03:37;98691.98;;;18.57;92.65
57847;BME280;43675;50.030;21.952;2023-06-24T01:06:03;98694.31;;;18.57;92.75
57847;BME280;43675;50.030;21.952;2023-06-24T01:08:30;98696.39;;;18.60;92.86
57847;BME280;43675;50.030;21.952;2023-06-24T01:10:57;98704.30;;;18.65;92.91
57847;BME280;43675;50.030;21.952;2023-06-24T01:13:23;98703.45;;;18.69;92.98
57847;BME280;43675;50.030;21.952;2023-06-24T01:15:50;98703.79;;;18.73;93.08
57847;BME280;43675;50.030;21.952;2023-06-24T01:18:26;98697.98;;;18.78;93.23
57847;BME280;43675;50.030;21.952;2023-06-24T01:21:02;98701.48;;;18.85;93.36
57847;BME280;43675;50.030;21.952;2023-06-24T01:34:28;98701.17;;;19.12;92.95
57847;BME280;43675;50.030;21.952;2023-06-24T01:37:20;98699.12;;;19.16;92.92
57847;BME280;43675;50.030;21.952;2023-06-24T01:39:50;98697.73;;;19.21;92.88
57847;BME280;43675;50.030;21.952;2023-06-24T01:42:21;98693.04;;;19.26;92.85
57847;BME280;43675;50.030;21.952;2023-06-24T01:44:49;98695.60;;;19.30;92.78
57847;BME280;43675;50.030;21.952;2023-06-24T01:47:20;98694.52;;;19.34;92.72
57847;BME280;43675;50.030;21.952;2023-06-24T01:49:49;98697.85;;;19.39;92.66
57847;BME280;43675;50.030;21.952;2023-06-24T01:52:20;98703.44;;;19.45;92.57
57847;BME280;43675;50.030;21.952;2023-06-24T01:54:49;98705.35;;;19.48;92.56
57847;BME280;43675;50.030;21.952;2023-06-24T01:57:18;98699.52;;;19.50;92.30
57847;BME280;43675;50.030;21.952;2023-06-24T01:59:48;98701.92;;;19.52;92.21
57847;BME280;43675;50.030;21.952;2023-06-24T02:02:15;98704.80;;;19.53;92.23
57847;BME280;43675;50.030;21.952;2023-06-24T02:04:43;98705.29;;;19.54;92.15
57847;BME280;43675;50.030;21.952;2023-06-24T02:07:11;98707.74;;;19.57;92.05
57847;BME280;43675;50.030;21.952;2023-06-24T02:09:40;98703.16;;;19.58;91.99
57847;BME280;43675;50.030;21.952;2023-06-24T02:12:08;98705.99;;;19.58;91.94
57847;BME280;43675;50.030;21.952;2023-06-24T02:14:36;98699.80;;;19.58;91.99
57847;BME280;43675;50.030;21.952;2023-06-24T02:17:05;98700.63;;;19.60;91.83
57847;BME280;43675;50.030;21.952;2023-06-24T02:19:33;98702.73;;;19.62;91.76
57847;BME280;43675;50.030;21.952;2023-06-24T02:22:00;98697.45;;;19.77;91.60
57847;BME280;43675;50.030;21.952;2023-06-24T02:24:28;98698.05;;;19.84;91.00
57847;BME280;43675;50.030;21.952;2023-06-24T02:26:58;98704.31;;;19.81;90.98
57847;BME280;43675;50.030;21.952;2023-06-24T02:29:29;98700.83;;;19.77;91.15
57847;BME280;43675;50.030;21.952;2023-06-24T02:31:57;98704.86;;;19.75;91.21
57847;BME280;43675;50.030;21.952;2023-06-24T02:34:24;98707.85;;;19.72;91.14
57847;BME280;43675;50.030;21.952;2023-06-24T02:36:51;98706.50;;;19.68;91.22
57847;BME280;43675;50.030;21.952;2023-06-24T02:39:18;98704.14;;;19.67;91.28
57847;BME280;43675;50.030;21.952;2023-06-24T02:41:45;98702.58;;;19.74;91.45
57847;BME280;43675;50.030;21.952;2023-06-24T02:44:11;98705.52;;;19.72;91.45
57847;BME280;43675;50.030;21.952;2023-06-24T02:46:39;98707.64;;;19.67;91.66
57847;BME280;43675;50.030;21.952;2023-06-24T02:49:08;98711.51;;;19.64;92.18
57847;BME280;43675;50.030;21.952;2023-06-24T02:51:38;98722.28;;;19.62;92.29
57847;BME280;43675;50.030;21.952;2023-06-24T02:54:06;98731.54;;;19.59;92.50
57847;BME280;43675;50.030;21.952;2023-06-24T02:56:35;98735.56;;;19.58;92.79
57847;BME280;43675;50.030;21.952;2023-06-24T02:59:01;98739.27;;;19.57;93.07
57847;BME280;43675;50.030;21.952;2023-06-24T03:01:28;98740.46;;;19.56;93.26
57847;BME280;43675;50.030;21.952;2023-06-24T03:03:56;98744.49;;;19.56;93.32
57847;BME280;43675;50.030;21.952;2023-06-24T03:06:23;98740.80;;;19.56;93.48
57847;BME280;43675;50.030;21.952;2023-06-24T03:08:50;98741.98;;;19.58;93.42
57847;BME280;43675;50.030;21.952;2023-06-24T03:11:16;98746.35;;;19.59;93.46
57847;BME280;43675;50.030;21.952;2023-06-24T03:13:43;98749.73;;;19.60;93.57
57847;BME280;43675;50.030;21.952;2023-06-24T03:16:11;98756.15;;;19.60;93.64
57847;BME280;43675;50.030;21.952;2023-06-24T03:18:41;98759.73;;;19.59;93.76
57847;BME280;43675;50.030;21.952;2023-06-24T03:21:09;98761.92;;;19.60;93.78
57847;BME280;43675;50.030;21.952;2023-06-24T03:23:36;98767.65;;;19.64;93.81
57847;BME280;43675;50.030;21.952;2023-06-24T03:26:03;98768.79;;;19.66;93.82
57847;BME280;43675;50.030;21.952;2023-06-24T03:28:32;98770.75;;;19.66;93.81
57847;BME280;43675;50.030;21.952;2023-06-24T03:30:58;98770.90;;;19.66;93.93
57847;BME280;43675;50.030;21.952;2023-06-24T03:33:25;98770.20;;;19.65;93.93
57847;BME280;43675;50.030;21.952;2023-06-24T03:35:54;98771.08;;;19.68;93.93
57847;BME280;43675;50.030;21.952;2023-06-24T03:38:21;98775.82;;;19.73;93.94
57847;BME280;43675;50.030;21.952;2023-06-24T03:40:48;98779.96;;;19.76;93.89
57847;BME280;43675;50.030;21.952;2023-06-24T03:43:14;98780.50;;;19.76;93.81
57847;BME280;43675;50.030;21.952;2023-06-24T03:45:41;98781.27;;;19.75;93.90
57847;BME280;43675;50.030;21.952;2023-06-24T03:48:07;98782.56;;;19.77;93.89
57847;BME280;43675;50.030;21.952;2023-06-24T03:50:34;98780.98;;;19.77;93.87
57847;BME280;43675;50.030;21.952;2023-06-24T03:53:00;98780.51;;;19.78;93.77
57847;BME280;43675;50.030;21.952;2023-06-24T03:55:27;98780.40;;;19.79;93.78
57847;BME280;43675;50.030;21.952;2023-06-24T03:57:53;98778.71;;;19.80;93.80
57847;BME280;43675;50.030;21.952;2023-06-24T04:00:20;98781.44;;;19.82;93.71
57847;BME280;43675;50.030;21.952;2023-06-24T04:02:47;98778.39;;;19.83;93.68
57847;BME280;43675;50.030;21.952;2023-06-24T04:05:13;98779.97;;;19.86;93.70
57847;BME280;43675;50.030;21.952;2023-06-24T04:07:40;98778.55;;;19.88;93.58
57847;BME280;43675;50.030;21.952;2023-06-24T04:10:08;98780.83;;;19.90;93.47
57847;BME280;43675;50.030;21.952;2023-06-24T04:12:36;98779.31;;;19.91;93.43
57847;BME280;43675;50.030;21.952;2023-06-24T04:15:03;98780.61;;;19.93;93.41
57847;BME280;43675;50.030;21.952;2023-06-24T04:17:30;98779.41;;;19.92;93.29
57847;BME280;43675;50.030;21.952;2023-06-24T04:19:57;98781.48;;;19.92;93.19
57847;BME280;43675;50.030;21.952;2023-06-24T04:22:25;98785.42;;;19.90;93.14
57847;BME280;43675;50.030;21.952;2023-06-24T04:24:51;98791.30;;;19.88;93.04
57847;BME280;43675;50.030;21.952;2023-06-24T04:27:18;98791.79;;;19.83;92.79
57847;BME280;43675;50.030;21.952;2023-06-24T04:29:44;98794.81;;;19.76;92.71
57847;BME280;43675;50.030;21.952;2023-06-24T04:32:11;98796.12;;;19.69;92.77
57847;BME280;43675;50.030;21.952;2023-06-24T04:34:37;98799.71;;;19.63;92.83
57847;BME280;43675;50.030;21.952;2023-06-24T04:37:04;98796.98;;;19.60;93.05
57847;BME280;43675;50.030;21.952;2023-06-24T04:39:30;98797.42;;;19.58;93.04
57847;BME280;43675;50.030;21.952;2023-06-24T04:41:57;98789.23;;;19.51;92.95
57847;BME280;43675;50.030;21.952;2023-06-24T04:44:23;98788.91;;;19.40;92.96
57847;BME280;43675;50.030;21.952;2023-06-24T04:46:50;98784.58;;;19.28;93.26
57847;BME280;43675;50.030;21.952;2023-06-24T04:49:16;98784.77;;;19.17;93.57
57847;BME280;43675;50.030;21.952;2023-06-24T04:51:43;98785.22;;;19.08;93.96
57847;BME280;43675;50.030;21.952;2023-06-24T04:54:10;98786.08;;;19.03;94.24
57847;BME280;43675;50.030;21.952;2023-06-24T04:56:36;98781.87;;;19.00;94.62
57847;BME280;43675;50.030;21.952;2023-06-24T04:59:03;98780.17;;;18.97;94.83
57847;BME280;43675;50.030;21.952;2023-06-24T05:01:29;98774.72;;;18.94;95.08
57847;BME280;43675;50.030;21.952;2023-06-24T05:03:56;98772.55;;;18.92;95.20
57847;BME280;43675;50.030;21.952;2023-06-24T05:06:22;98765.57;;;18.89;95.30
57847;BME280;43675;50.030;21.952;2023-06-24T05:08:49;98763.60;;;18.85;95.46
57847;BME280;43675;50.030;21.952;2023-06-24T05:11:15;98767.88;;;18.83;95.62
57847;BME280;43675;50.030;21.952;2023-06-24T05:13:42;98770.45;;;18.82;95.95
57847;BME280;43675;50.030;21.952;2023-06-24T05:16:08;98766.73;;;18.81;96.15
57847;BME280;43675;50.030;21.952;2023-06-24T05:18:35;98762.81;;;18.81;96.28
57847;BME280;43675;50.030;21.952;2023-06-24T05:21:01;98759.67;;;18.81;96.44
57847;BME280;43675;50.030;21.952;2023-06-24T05:23:28;98751.55;;;18.80;96.66
57847;BME280;43675;50.030;21.952;2023-06-24T05:25:54;98747.42;;;18.80;96.71
57847;BME280;43675;50.030;21.952;2023-06-24T05:28:21;98740.67;;;18.78;96.86
57847;BME280;43675;50.030;21.952;2023-06-24T05:30:47;98738.43;;;18.76;97.06
57847;BME280;43675;50.030;21.952;2023-06-24T05:33:14;98731.04;;;18.75;97.25
57847;BME280;43675;50.030;21.952;2023-06-24T05:35:43;98733.96;;;18.74;97.51
57847;BME280;43675;50.030;21.952;2023-06-24T05:38:09;98721.50;;;18.71;97.51
57847;BME280;43675;50.030;21.952;2023-06-24T05:40:36;98723.02;;;18.71;97.61
57847;BME280;43675;50.030;21.952;2023-06-24T05:43:03;98722.65;;;18.69;97.78
57847;BME280;43675;50.030;21.952;2023-06-24T05:45:29;98722.10;;;18.69;97.86
57847;BME280;43675;50.030;21.952;2023-06-24T05:47:56;98715.30;;;18.71;97.96
57847;BME280;43675;50.030;21.952;2023-06-24T05:50:22;98710.30;;;18.72;97.98
57847;BME280;43675;50.030;21.952;2023-06-24T05:52:49;98712.11;;;18.74;97.96
57847;BME280;43675;50.030;21.952;2023-06-24T05:55:15;98711.35;;;18.73;98.01
57847;BME280;43675;50.030;21.952;2023-06-24T05:57:42;98709.02;;;18.73;98.06
57847;BME280;43675;50.030;21.952;2023-06-24T06:00:09;98711.13;;;18.74;98.03
57847;BME280;43675;50.030;21.952;2023-06-24T06:02:35;98711.60;;;18.70;98.00
57847;BME280;43675;50.030;21.952;2023-06-24T06:05:03;98712.79;;;18.66;97.98
57847;BME280;43675;50.030;21.952;2023-06-24T06:07:29;98715.11;;;18.62;98.08
57847;BME280;43675;50.030;21.952;2023-06-24T06:09:56;98717.91;;;18.59;98.16
57847;BME280;43675;50.030;21.952;2023-06-24T06:12:22;98720.34;;;18.55;98.33
57847;BME280;43675;50.030;21.952;2023-06-24T06:14:49;98725.55;;;18.53;98.38
57847;BME280;43675;50.030;21.952;2023-06-24T06:17:15;98721.84;;;18.47;98.30
57847;BME280;43675;50.030;21.952;2023-06-24T06:19:42;98733.66;;;18.41;98.36
57847;BME280;43675;50.030;21.952;2023-06-24T06:22:08;98739.36;;;18.39;98.53
57847;BME280;43675;50.030;21.952;2023-06-24T06:24:35;98739.10;;;18.39;98.58
57847;BME280;43675;50.030;21.952;2023-06-24T06:27:01;98746.80;;;18.38;98.50
57847;BME280;43675;50.030;21.952;2023-06-24T06:29:28;98750.50;;;18.37;98.52
57847;BME280;43675;50.030;21.952;2023-06-24T06:31:55;98761.35;;;18.36;98.57
57847;BME280;43675;50.030;21.952;2023-06-24T06:34:21;98771.08;;;18.34;98.51
57847;BME280;43675;50.030;21.952;2023-06-24T06:36:48;98778.14;;;18.34;98.77
57847;BME280;43675;50.030;21.952;2023-06-24T06:39:14;98780.95;;;18.39;98.89
57847;BME280;43675;50.030;21.952;2023-06-24T06:41:41;98783.70;;;18.48;98.88
57847;BME280;43675;50.030;21.952;2023-06-24T06:44:07;98794.11;;;18.51;98.88
57847;BME280;43675;50.030;21.952;2023-06-24T06:46:34;98798.75;;;18.52;98.66
57847;BME280;43675;50.030;21.952;2023-06-24T06:49:00;98799.63;;;18.52;98.59
57847;BME280;43675;50.030;21.952;2023-06-24T06:51:27;98798.96;;;18.57;98.76
57847;BME280;43675;50.030;21.952;2023-06-24T06:53:53;98805.34;;;18.62;98.76
57847;BME280;43675;50.030;21.952;2023-06-24T06:56:23;98808.96;;;18.67;98.78
57847;BME280;43675;50.030;21.952;2023-06-24T06:58:50;98809.13;;;18.69;98.56
57847;BME280;43675;50.030;21.952;2023-06-24T07:01:18;98817.87;;;18.75;98.42
57847;BME280;43675;50.030;21.952;2023-06-24T07:03:45;98826.12;;;18.83;98.55
57847;BME280;43675;50.030;21.952;2023-06-24T07:06:11;98835.39;;;18.87;98.21
57847;BME280;43675;50.030;21.952;2023-06-24T07:08:38;98837.38;;;19.04;97.79
57847;BME280;43675;50.030;21.952;2023-06-24T07:11:04;98840.70;;;19.06;97.06
57847;BME280;43675;50.030;21.952;2023-06-24T07:13:31;98844.88;;;19.04;96.94
57847;BME280;43675;50.030;21.952;2023-06-24T07:15:57;98848.08;;;19.04;96.85
57847;BME280;43675;50.030;21.952;2023-06-24T07:18:24;98846.94;;;19.02;96.52
57847;BME280;43675;50.030;21.952;2023-06-24T07:20:53;98852.19;;;18.97;96.43
57847;BME280;43675;50.030;21.952;2023-06-24T07:23:19;98853.70;;;18.94;96.42
57847;BME280;43675;50.030;21.952;2023-06-24T07:25:46;98857.02;;;18.94;96.45
57847;BME280;43675;50.030;21.952;2023-06-24T07:28:12;98864.30;;;18.92;96.19
57847;BME280;43675;50.030;21.952;2023-06-24T07:30:40;98867.18;;;18.92;96.16
57847;BME280;43675;50.030;21.952;2023-06-24T07:33:07;98862.77;;;18.95;96.23
57847;BME280;43675;50.030;21.952;2023-06-24T07:35:34;98864.17;;;19.11;96.02
57847;BME280;43675;50.030;21.952;2023-06-24T07:38:00;98869.75;;;19.16;95.50
57847;BME280;43675;50.030;21.952;2023-06-24T07:40:27;98877.08;;;19.13;95.33
57847;BME280;43675;50.030;21.952;2023-06-24T07:42:53;98884.63;;;19.09;95.38
57847;BME280;43675;50.030;21.952;2023-06-24T07:45:20;98886.14;;;19.07;95.43
57847;BME280;43675;50.030;21.952;2023-06-24T07:47:47;98891.06;;;19.12;95.48
57847;BME280;43675;50.030;21.952;2023-06-24T07:50:13;98895.83;;;19.20;95.43
57847;BME280;43675;50.030;21.952;2023-06-24T07:52:40;98903.63;;;19.24;95.23
57847;BME280;43675;50.030;21.952;2023-06-24T07:55:06;98903.86;;;19.27;94.96
57847;BME280;43675;50.030;21.952;2023-06-24T07:57:33;98906.09;;;19.36;95.11
57847;BME280;43675;50.030;21.952;2023-06-24T08:00:00;98905.95;;;19.47;94.80
57847;BME280;43675;50.030;21.952;2023-06-24T08:02:26;98908.65;;;19.59;94.76
57847;BME280;43675;50.030;21.952;2023-06-24T08:04:53;98913.05;;;19.60;94.03
57847;BME280;43675;50.030;21.952;2023-06-24T08:07:19;98915.83;;;19.55;93.68
57847;BME280;43675;50.030;21.952;2023-06-24T08:09:46;98921.41;;;19.48;93.27
57847;BME280;43675;50.030;21.952;2023-06-24T08:12:12;98926.04;;;19.49;93.53
57847;BME280;43675;50.030;21.952;2023-06-24T08:14:39;98926.55;;;19.55;93.36
57847;BME280;43675;50.030;21.952;2023-06-24T08:17:05;98932.98;;;19.54;92.96
57847;BME280;43675;50.030;21.952;2023-06-24T08:19:32;98938.48;;;19.55;92.89
57847;BME280;43675;50.030;21.952;2023-06-24T08:21:58;98941.31;;;19.58;92.74
57847;BME280;43675;50.030;21.952;2023-06-24T08:24:25;98943.49;;;19.57;92.40
57847;BME280;43675;50.030;21.952;2023-06-24T08:26:51;98948.32;;;19.54;92.26
57847;BME280;43675;50.030;21.952;2023-06-24T08:29:18;98947.66;;;19.54;92.32
57847;BME280;43675;50.030;21.952;2023-06-24T08:31:44;98950.51;;;19.53;92.19
57847;BME280;43675;50.030;21.952;2023-06-24T08:34:11;98952.62;;;19.53;92.11
57847;BME280;43675;50.030;21.952;2023-06-24T08:36:38;98952.40;;;19.54;91.87
57847;BME280;43675;50.030;21.952;2023-06-24T08:39:04;98953.70;;;19.51;91.63
57847;BME280;43675;50.030;21.952;2023-06-24T08:41:31;98948.75;;;19.50;91.62
57847;BME280;43675;50.030;21.952;2023-06-24T08:43:57;98949.35;;;19.52;91.56
57847;BME280;43675;50.030;21.952;2023-06-24T08:46:25;98950.52;;;19.55;91.27
57847;BME280;43675;50.030;21.952;2023-06-24T08:49:07;98951.50;;;19.58;91.31
57847;BME280;43675;50.030;21.952;2023-06-24T08:51:40;98956.52;;;19.62;91.15
57847;BME280;43675;50.030;21.952;2023-06-24T08:54:09;98955.17;;;19.80;90.70
57847;BME280;43675;50.030;21.952;2023-06-24T08:56:37;98956.23;;;19.89;90.08
57847;BME280;43675;50.030;21.952;2023-06-24T08:59:05;98957.98;;;19.84;89.89
57847;BME280;43675;50.030;21.952;2023-06-24T09:01:32;98958.54;;;19.77;89.57
57847;BME280;43675;50.030;21.952;2023-06-24T09:03:59;98960.19;;;19.81;89.19
57847;BME280;43675;50.030;21.952;2023-06-24T09:06:25;98960.27;;;19.86;88.66
57847;BME280;43675;50.030;21.952;2023-06-24T09:08:55;98962.23;;;19.89;88.30
57847;BME280;43675;50.030;21.952;2023-06-24T09:11:22;98966.33;;;19.91;88.03
57847;BME280;43675;50.030;21.952;2023-06-24T09:13:57;98969.34;;;19.94;87.89
57847;BME280;43675;50.030;21.952;2023-06-24T09:16:25;98974.09;;;19.82;87.54
57847;BME280;43675;50.030;21.952;2023-06-24T09:18:52;98976.54;;;19.68;87.94
57847;BME280;43675;50.030;21.952;2023-06-24T09:21:27;98979.51;;;19.60;87.87
57847;BME280;43675;50.030;21.952;2023-06-24T09:23:55;98979.58;;;19.66;87.72
57847;BME280;43675;50.030;21.952;2023-06-24T09:26:26;98980.11;;;19.77;87.46
57847;BME280;43675;50.030;21.952;2023-06-24T09:28:53;98983.80;;;19.86;86.95
57847;BME280;43675;50.030;21.952;2023-06-24T09:31:20;98989.09;;;19.89;86.30
57847;BME280;43675;50.030;21.952;2023-06-24T09:33:47;98992.74;;;19.89;86.11
57847;BME280;43675;50.030;21.952;2023-06-24T09:36:16;98992.08;;;19.84;85.67
57847;BME280;43675;50.030;21.952;2023-06-24T09:38:43;98994.07;;;19.81;85.53
57847;BME280;43675;50.030;21.952;2023-06-24T09:41:10;98992.44;;;19.82;85.39
57847;BME280;43675;50.030;21.952;2023-06-24T09:43:37;98984.14;;;19.88;85.43
57847;BME280;43675;50.030;21.952;2023-06-24T09:46:03;98983.86;;;19.90;85.06
57847;BME280;43675;50.030;21.952;2023-06-24T09:48:30;98989.93;;;19.94;84.93
57847;BME280;43675;50.030;21.952;2023-06-24T09:50:59;98993.08;;;19.93;84.70
57847;BME280;43675;50.030;21.952;2023-06-24T09:53:34;98993.13;;;19.92;84.54
57847;BME280;43675;50.030;21.952;2023-06-24T09:56:03;98994.02;;;19.95;84.78
57847;BME280;43675;50.030;21.952;2023-06-24T09:58:32;98997.56;;;20.00;84.70
57847;BME280;43675;50.030;21.952;2023-06-24T10:01:03;99004.65;;;20.00;84.23
57847;BME280;43675;50.030;21.952;2023-06-24T10:03:33;99006.16;;;19.95;84.00
57847;BME280;43675;50.030;21.952;2023-06-24T10:06:02;99009.40;;;19.88;83.64
57847;BME280;43675;50.030;21.952;2023-06-24T10:08:30;99011.02;;;19.73;83.68
57847;BME280;43675;50.030;21.952;2023-06-24T10:10:58;99013.35;;;19.58;84.14
57847;BME280;43675;50.030;21.952;2023-06-24T10:13:25;99019.80;;;19.50;84.38
57847;BME280;43675;50.030;21.952;2023-06-24T10:15:52;99019.40;;;19.50;84.50
57847;BME280;43675;50.030;21.952;2023-06-24T10:18:38;99021.66;;;19.66;84.24
57847;BME280;43675;50.030;21.952;2023-06-24T10:21:08;99026.05;;;19.81;83.33
57847;BME280;43675;50.030;21.952;2023-06-24T10:26:35;99022.88;;;19.80;82.94
57847;BME280;43675;50.030;21.952;2023-06-24T10:42:28;99017.02;;;20.49;80.47
57847;BME280;43675;50.030;21.952;2023-06-24T10:45:18;99019.70;;;20.58;80.27
57847;BME280;43675;50.030;21.952;2023-06-24T10:47:45;99020.43;;;20.71;79.87
57847;BME280;43675;50.030;21.952;2023-06-24T10:50:17;99014.59;;;20.92;79.30
57847;BME280;43675;50.030;21.952;2023-06-24T10:52:49;99019.99;;;21.27;78.19
57847;BME280;43675;50.030;21.952;2023-06-24T10:55:17;99016.16;;;21.54;76.91
57847;BME280;43675;50.030;21.952;2023-06-24T10:57:45;99019.31;;;21.77;76.36
57847;BME280;43675;50.030;21.952;2023-06-24T11:00:13;99022.77;;;21.91;75.77
57847;BME280;43675;50.030;21.952;2023-06-24T11:02:40;99022.42;;;21.80;75.13
57847;BME280;43675;50.030;21.952;2023-06-24T11:05:07;99022.84;;;21.68;74.88
57847;BME280;43675;50.030;21.952;2023-06-24T11:07:35;99022.55;;;21.58;74.97
57847;BME280;43675;50.030;21.952;2023-06-24T11:10:09;99030.27;;;21.51;75.01
57847;BME280;43675;50.030;21.952;2023-06-24T11:12:37;99022.37;;;21.62;74.93
57847;BME280;43675;50.030;21.952;2023-06-24T11:15:06;99029.80;;;21.78;74.42
57847;BME280;43675;50.030;21.952;2023-06-24T11:17:34;99035.42;;;21.80;73.67
57847;BME280;43675;50.030;21.952;2023-06-24T11:20:02;99030.70;;;21.69;72.85
57847;BME280;43675;50.030;21.952;2023-06-24T11:22:32;99031.43;;;21.66;73.31
57847;BME280;43675;50.030;21.952;2023-06-24T11:24:59;99037.67;;;21.62;73.06
57847;BME280;43675;50.030;21.952;2023-06-24T11:27:27;99045.33;;;21.53;72.78
57847;BME280;43675;50.030;21.952;2023-06-24T11:29:56;99042.18;;;21.46;72.87
57847;BME280;43675;50.030;21.952;2023-06-24T11:32:23;99043.44;;;21.45;72.85
57847;BME280;43675;50.030;21.952;2023-06-24T11:34:50;99044.81;;;21.48;72.95
57847;BME280;43675;50.030;21.952;2023-06-24T11:37:17;99045.67;;;21.51;72.74
57847;BME280;43675;50.030;21.952;2023-06-24T11:39:45;99049.77;;;21.43;72.63
57847;BME280;43675;50.030;21.952;2023-06-24T11:42:27;99042.42;;;21.33;72.89
57847;BME280;43675;50.030;21.952;2023-06-24T11:44:59;99038.39;;;21.27;72.95
57847;BME280;43675;50.030;21.952;2023-06-24T11:47:25;99038.89;;;21.17;73.04
57847;BME280;43675;50.030;21.952;2023-06-24T11:49:55;99037.95;;;21.09;73.20
57847;BME280;43675;50.030;21.952;2023-06-24T11:52:42;99038.27;;;21.06;73.37
57847;BME280;43675;50.030;21.952;2023-06-24T11:55:20;99037.06;;;21.01;73.56
57847;BME280;43675;50.030;21.952;2023-06-24T12:00:14;99028.88;;;20.99;73.86
57847;BME280;43675;50.030;21.952;2023-06-24T12:02:41;99032.64;;;21.08;73.62
57847;BME280;43675;50.030;21.952;2023-06-24T12:05:08;99029.89;;;21.17;73.65
57847;BME280;43675;50.030;21.952;2023-06-24T12:07:34;99030.46;;;21.29;73.47
57847;BME280;43675;50.030;21.952;2023-06-24T12:10:01;99032.53;;;21.35;73.36
57847;BME280;43675;50.030;21.952;2023-06-24T12:12:27;99033.04;;;21.26;72.95
57847;BME280;43675;50.030;21.952;2023-06-24T12:14:54;99031.56;;;21.09;73.02
57847;BME280;43675;50.030;21.952;2023-06-24T12:17:20;99027.64;;;20.93;73.46
57847;BME280;43675;50.030;21.952;2023-06-24T12:19:47;99032.92;;;20.86;73.97
57847;BME280;43675;50.030;21.952;2023-06-24T12:22:13;99031.77;;;20.84;74.31
57847;BME280;43675;50.030;21.952;2023-06-24T12:24:40;99034.08;;;20.85;74.54
57847;BME280;43675;50.030;21.952;2023-06-24T12:27:06;99029.05;;;20.95;74.85
57847;BME280;43675;50.030;21.952;2023-06-24T12:29:33;99028.13;;;21.10;74.65
57847;BME280;43675;50.030;21.952;2023-06-24T12:31:59;99033.20;;;21.22;74.60
57847;BME280;43675;50.030;21.952;2023-06-24T12:34:26;99030.24;;;21.33;74.48
57847;BME280;43675;50.030;21.952;2023-06-24T12:36:52;99031.83;;;21.40;74.39
57847;BME280;43675;50.030;21.952;2023-06-24T12:39:19;99031.48;;;21.45;73.81
57847;BME280;43675;50.030;21.952;2023-06-24T12:41:45;99029.84;;;21.42;73.90
57847;BME280;43675;50.030;21.952;2023-06-24T12:44:12;99031.47;;;21.45;74.01
57847;BME280;43675;50.030;21.952;2023-06-24T12:46:39;99038.74;;;21.41;73.76
57847;BME280;43675;50.030;21.952;2023-06-24T12:49:05;99039.92;;;21.30;73.81
57847;BME280;43675;50.030;21.952;2023-06-24T12:51:32;99039.94;;;21.19;74.09
57847;BME280;43675;50.030;21.952;2023-06-24T12:53:58;99041.13;;;21.12;74.27
57847;BME280;43675;50.030;21.952;2023-06-24T12:56:25;99046.13;;;21.03;74.21
57847;BME280;43675;50.030;21.952;2023-06-24T12:58:51;99046.34;;;20.95;74.23
57847;BME280;43675;50.030;21.952;2023-06-24T13:01:18;99047.43;;;20.91;74.26
57847;BME280;43675;50.030;21.952;2023-06-24T13:03:44;99046.84;;;20.88;74.34
57847;BME280;43675;50.030;21.952;2023-06-24T13:06:11;99047.82;;;20.88;74.61
57847;BME280;43675;50.030;21.952;2023-06-24T13:08:37;99051.42;;;20.89;74.33
57847;BME280;43675;50.030;21.952;2023-06-24T13:11:04;99055.67;;;20.89;73.85
57847;BME280;43675;50.030;21.952;2023-06-24T13:13:30;99049.83;;;20.87;74.07
57847;BME280;43675;50.030;21.952;2023-06-24T13:15:57;99051.48;;;20.89;74.00
57847;BME280;43675;50.030;21.952;2023-06-24T13:18:23;99051.04;;;20.92;73.73
57847;BME280;43675;50.030;21.952;2023-06-24T13:20:50;99053.60;;;21.00;73.71
57847;BME280;43675;50.030;21.952;2023-06-24T13:23:18;99052.21;;;21.15;73.54